Terminal Aerodrome Forecast
Issued by NWS

Home | Current Version | Previous Version | Graphics & Text | Print | Product List | Glossary On
Versions: 1 2 3 4 5 6 7 8 9 10 11 12 13 14 15 16 17 18 19 20 21 22 23 24 25 26 27
000
FTUS42 KMHX 221724
TAFOAJ
TAF
KOAJ 221724Z 2218/2318 21009G17KT P6SM SCT040
     FM230000 20004KT P6SM FEW120
     FM230800 VRB03KT 2SM BR BKN007
     FM231300 VRB03KT 3SM BR BKN020
     FM231400 19004KT P6SM BKN035
      AMD LTD TO CLD VIS AND WIND=

USA.gov is the U.S. government's official web portal to all federal, state and local government web resources and services.